Time;durP1;ratioP1;P1;durP2;ratioP2;P2;SDS_P1;SDS_P2;PMS_P1;PMS_P2;Temp;Humidity;BMP_temperature;BMP_pressure;BME280_temperature;BME280_humidity;BME280_pressure;Samples;Min_cycle;Max_cycle;Signal;HPM_P1;HPM_P2
2021/08/21 00:00:55;;;;;;;4.45;3.03;;;;;;;22.88;50.98;100130.94;5033212;28;20092;-81
2021/08/21 00:03:22;;;;;;;3.10;2.80;;;;;;;23.13;50.32;100128.41;5033266;28;20080;-81
2021/08/21 00:05:49;;;;;;;7.05;2.65;;;;;;;22.97;51.09;100124.69;5032844;28;20041;-80
2021/08/21 00:08:18;;;;;;;5.25;3.67;;;;;;;22.85;51.07;100131.25;5033378;28;20045;-80
2021/08/21 00:10:44;;;;;;;6.43;3.20;;;;;;;23.13;50.38;100131.06;5032785;28;20534;-80
2021/08/21 00:13:11;;;;;;;4.35;2.92;;;;;;;23.32;50.15;100125.47;5033092;28;20477;-80
2021/08/21 00:15:38;;;;;;;3.22;2.78;;;;;;;22.86;51.44;100132.91;5032538;28;20095;-80
2021/08/21 00:18:05;;;;;;;4.22;2.70;;;;;;;22.88;51.46;100125.63;5033270;28;20372;-82
2021/08/21 00:20:33;;;;;;;3.83;3.00;;;;;;;22.75;51.88;100128.72;5032845;28;20046;-81
2021/08/21 00:22:59;;;;;;;4.10;2.97;;;;;;;22.69;51.60;100126.69;5033191;28;20080;-81
2021/08/21 00:25:28;;;;;;;3.13;2.67;;;;;;;22.70;51.94;100127.50;5032987;28;20519;-81
2021/08/21 00:27:55;;;;;;;4.95;3.15;;;;;;;22.43;52.29;100132.00;5032443;28;20099;-80
2021/08/21 00:30:22;;;;;;;4.38;3.15;;;;;;;22.40;52.59;100124.31;5033417;28;20049;-80
2021/08/21 00:32:50;;;;;;;4.22;3.47;;;;;;;22.32;52.99;100129.59;5031152;28;20091;-81
2021/08/21 00:35:19;;;;;;;8.85;3.25;;;;;;;22.38;52.79;100123.66;5032497;28;20100;-80
2021/08/21 00:37:46;;;;;;;8.35;3.75;;;;;;;22.32;53.11;100128.75;5047751;28;20072;-80
2021/08/21 00:40:13;;;;;;;8.60;2.92;;;;;;;22.46;52.37;100130.84;5030593;28;20187;-81
2021/08/21 00:42:40;;;;;;;3.95;2.70;;;;;;;22.68;51.54;100125.00;5032539;28;20045;-80
2021/08/21 00:45:07;;;;;;;6.85;3.28;;;;;;;22.79;51.12;100121.22;5032828;28;20400;-80
2021/08/21 00:47:34;;;;;;;6.85;3.58;;;;;;;22.43;52.46;100121.38;5031478;28;20103;-81
2021/08/21 00:50:02;;;;;;;8.02;3.00;;;;;;;22.38;52.55;100123.66;5030889;28;20099;-81
2021/08/21 00:52:32;;;;;;;4.05;2.60;;;;;;;22.43;52.08;100121.38;5032691;28;20091;-82
2021/08/21 00:54:58;;;;;;;3.15;2.78;;;;;;;22.38;52.26;100117.53;5032182;28;20046;-82
2021/08/21 00:57:26;;;;;;;3.70;2.65;;;;;;;22.59;51.86;100119.81;5031301;28;20073;-81
2021/08/21 00:59:54;;;;;;;7.15;4.28;;;;;;;22.55;51.70;100113.13;5031034;28;20048;-82
2021/08/21 01:02:21;;;;;;;4.05;2.95;;;;;;;22.36;52.27;100120.31;5048024;28;20049;-81
2021/08/21 01:04:53;;;;;;;5.55;2.97;;;;;;;22.63;51.83;100118.50;5030909;28;20068;-82
2021/08/21 01:07:24;;;;;;;4.00;3.50;;;;;;;22.66;51.46;100113.69;5030419;28;20065;-81
2021/08/21 01:09:53;;;;;;;3.65;2.50;;;;;;;22.57;51.60;100116.47;5030860;28;20041;-81
2021/08/21 01:12:21;;;;;;;6.05;4.57;;;;;;;22.82;51.04;100115.63;5031243;28;20072;-81
2021/08/21 01:14:50;;;;;;;3.78;2.70;;;;;;;22.66;51.20;100112.88;5034480;28;20054;-81
2021/08/21 01:17:19;;;;;;;4.85;2.80;;;;;;;22.79;50.49;100115.91;5021808;28;20041;-82
2021/08/21 01:19:51;;;;;;;6.05;3.08;;;;;;;22.77;50.51;100109.94;5043109;28;20056;-82
2021/08/21 01:22:25;;;;;;;7.45;2.65;;;;;;;22.75;51.30;100104.78;5029375;28;20053;-82
2021/08/21 01:25:00;;;;;;;3.28;2.90;;;;;;;22.59;51.80;100110.03;5029657;28;20072;-82
2021/08/21 01:27:33;;;;;;;9.45;3.17;;;;;;;22.19;52.75;100116.72;5029341;28;20136;-82
2021/08/21 01:30:15;;;;;;;5.97;2.70;;;;;;;22.52;52.30;100116.09;5047234;28;20112;-81
2021/08/21 01:32:46;;;;;;;5.25;3.00;;;;;;;22.79;50.82;100115.09;5043474;28;20415;-81
2021/08/21 01:35:17;;;;;;;5.10;3.20;;;;;;;23.08;49.24;100114.75;5030685;28;20132;-81
2021/08/21 01:37:45;;;;;;;3.75;3.15;;;;;;;23.12;49.19;100113.47;5030124;28;20037;-80
2021/08/21 01:40:30;;;;;;;3.63;2.85;;;;;;;23.27;49.05;100114.47;5030760;28;20074;-81
2021/08/21 01:43:00;;;;;;;4.43;3.15;;;;;;;23.25;48.74;100111.16;5029997;28;20041;-82
2021/08/21 01:45:30;;;;;;;4.00;2.90;;;;;;;23.46;48.02;100106.22;5031179;28;20045;-81
2021/08/21 01:47:57;;;;;;;4.05;3.08;;;;;;;23.42;47.84;100104.88;5033463;28;20607;-81
2021/08/21 01:50:24;;;;;;;4.95;3.35;;;;;;;23.53;47.63;100099.25;5034176;28;20189;-82
2021/08/21 01:52:51;;;;;;;5.90;3.67;;;;;;;23.57;47.79;100104.25;5034108;28;20080;-82
2021/08/21 01:55:29;;;;;;;5.30;2.72;;;;;;;23.65;47.49;100102.47;5033744;28;20118;-81
2021/08/21 01:57:59;;;;;;;3.97;3.53;;;;;;;23.59;47.52;100103.06;5028751;28;20068;-82
2021/08/21 02:00:55;;;;;;;6.15;2.85;;;;;;;23.51;47.77;100106.56;5015724;28;20606;-82
2021/08/21 02:03:25;;;;;;;5.55;2.60;;;;;;;23.25;48.88;100114.66;5050989;28;20419;-83
2021/08/21 02:05:52;;;;;;;5.57;2.97;;;;;;;22.78;50.55;100108.09;5033912;28;20072;-82
2021/08/21 02:08:21;;;;;;;5.25;3.20;;;;;;;22.68;51.04;100118.84;5034042;28;20452;-82
2021/08/21 02:10:49;;;;;;;3.17;2.67;;;;;;;22.54;51.41;100106.16;5050070;28;20068;-82
2021/08/21 02:13:17;;;;;;;4.78;2.88;;;;;;;22.70;51.06;100112.41;5034156;28;20049;-81
2021/08/21 02:15:44;;;;;;;6.30;2.92;;;;;;;22.84;50.59;100113.63;5033648;28;20089;-82
2021/08/21 02:18:13;;;;;;;2.97;2.70;;;;;;;22.90;50.52;100102.38;5034630;28;20103;-82
2021/08/21 02:21:02;;;;;;;4.00;2.58;;;;;;;22.74;50.81;100110.25;5028587;28;20062;-82
2021/08/21 02:23:29;;;;;;;3.30;2.85;;;;;;;22.65;50.88;100117.34;5050793;28;20048;-81
2021/08/21 02:26:00;;;;;;;5.05;2.80;;;;;;;23.04;49.43;100116.06;5033530;28;20041;-81
2021/08/21 02:28:33;;;;;;;5.00;2.60;;;;;;;23.25;48.32;100116.47;5032863;28;20470;-81
2021/08/21 02:31:01;;;;;;;7.57;3.03;;;;;;;23.41;48.50;100116.53;5033748;28;20038;-80
2021/08/21 02:33:28;;;;;;;3.85;2.95;;;;;;;23.38;48.16;100113.34;5033267;28;20067;-81
2021/08/21 02:35:54;;;;;;;4.32;3.38;;;;;;;23.43;48.39;100114.50;5033828;28;20037;-81
2021/08/21 02:38:22;;;;;;;3.83;3.00;;;;;;;23.35;48.61;100105.72;5048472;28;20094;-81
2021/08/21 02:40:49;;;;;;;3.78;2.97;;;;;;;23.41;48.06;100115.69;5032774;28;20044;-81
2021/08/21 02:43:16;;;;;;;7.72;2.88;;;;;;;23.36;48.20;100118.00;5031191;28;20103;-80
2021/08/21 02:45:43;;;;;;;6.53;3.35;;;;;;;23.35;48.01;100109.19;5033336;28;20041;-81
2021/08/21 02:48:10;;;;;;;4.22;2.97;;;;;;;23.38;48.06;100119.50;5034091;28;20584;-82
2021/08/21 02:50:37;;;;;;;4.80;2.67;;;;;;;23.06;49.33;100122.03;5032504;28;20045;-82
2021/08/21 02:53:06;;;;;;;5.00;2.85;;;;;;;22.88;49.40;100125.63;5034592;28;20399;-81
2021/08/21 02:55:33;;;;;;;6.18;3.15;;;;;;;22.79;50.06;100131.84;5033066;28;20086;-81
2021/08/21 02:57:59;;;;;;;4.60;2.80;;;;;;;22.84;49.94;100118.94;5032176;28;20045;-81
2021/08/21 03:00:36;;;;;;;3.97;2.95;;;;;;;22.81;50.00;100124.59;5032648;28;20467;-81
2021/08/21 03:03:11;;;;;;;5.28;3.00;;;;;;;22.86;50.00;100130.25;5049870;28;20049;-82
2021/08/21 03:05:40;;;;;;;4.57;2.35;;;;;;;23.00;49.69;100134.16;5032895;28;20038;-81
2021/08/21 03:08:07;;;;;;;3.28;2.50;;;;;;;23.00;49.83;100134.16;5032934;28;20047;-81
2021/08/21 03:10:44;;;;;;;5.13;3.10;;;;;;;22.85;50.29;100131.25;5032799;28;20045;-80
2021/08/21 03:13:10;;;;;;;4.10;3.17;;;;;;;22.91;49.60;100141.28;5033155;28;20182;-82
2021/08/21 03:15:38;;;;;;;3.80;3.15;;;;;;;22.85;49.90;100139.22;5033860;28;20116;-82
2021/08/21 03:18:05;;;;;;;5.68;2.97;;;;;;;22.78;50.05;100130.19;5049526;28;20053;-80
2021/08/21 03:20:34;;;;;;;5.97;3.30;;;;;;;22.76;50.18;100137.50;5032981;28;20033;-81
2021/08/21 03:23:01;;;;;;;3.15;2.83;;;;;;;22.72;50.07;100141.47;5034126;28;20072;-81
2021/08/21 03:25:32;;;;;;;3.50;3.20;;;;;;;22.85;50.11;100141.88;5032988;28;20046;-82
2021/08/21 03:27:58;;;;;;;3.50;3.20;;;;;;;22.82;49.77;100142.19;5032391;28;20049;-82
2021/08/21 03:30:26;;;;;;;7.25;2.80;;;;;;;22.97;49.27;100140.63;5032891;28;20092;-82
2021/08/21 03:33:11;;;;;;;3.45;3.00;;;;;;;23.22;48.36;100135.41;5033374;28;20801;-82
2021/08/21 03:35:38;;;;;;;6.05;3.05;;;;;;;23.24;48.64;100139.56;5032496;28;20049;-82
2021/08/21 03:38:09;;;;;;;8.95;3.63;;;;;;;23.07;48.94;100137.03;5032128;28;20095;-82
2021/08/21 03:40:46;;;;;;;5.00;3.35;;;;;;;23.23;48.83;100140.56;5032536;28;20379;-81
2021/08/21 03:43:16;;;;;;;7.78;2.38;;;;;;;22.86;49.77;100142.72;5048695;28;20407;-82
2021/08/21 03:45:44;;;;;;;3.85;3.03;;;;;;;23.00;49.34;100150.94;5032402;28;20087;-85
2021/08/21 03:48:12;;;;;;;4.22;3.45;;;;;;;23.36;49.20;100145.44;5031775;28;20492;-82
2021/08/21 03:50:39;;;;;;;11.15;3.63;;;;;;;23.43;49.12;100151.75;5032382;28;20063;-83
2021/08/21 03:53:07;;;;;;;9.18;3.40;;;;;;;23.40;49.52;100152.09;5032158;28;20411;-82
2021/08/21 03:55:40;;;;;;;5.63;3.72;;;;;;;23.28;49.99;100150.75;5033465;28;20408;-80
2021/08/21 03:58:07;;;;;;;5.25;3.97;;;;;;;22.80;50.98;100160.13;5031972;28;20103;-80
2021/08/21 04:00:34;;;;;;;3.72;3.10;;;;;;;22.81;50.52;100161.78;5031800;28;20069;-80
2021/08/21 04:03:09;;;;;;;3.40;2.88;;;;;;;22.66;51.09;100166.00;5048500;28;20053;-80
2021/08/21 04:05:37;;;;;;;8.77;3.15;;;;;;;22.42;51.85;100167.50;5032052;28;20385;-81
2021/08/21 04:08:05;;;;;;;8.23;2.85;;;;;;;22.20;53.23;100173.28;5031734;28;20033;-81
2021/08/21 04:10:32;;;;;;;4.05;3.65;;;;;;;22.55;52.21;100171.59;5032951;28;20500;-82
2021/08/21 04:13:00;;;;;;;5.18;3.00;;;;;;;21.95;53.50;100169.59;5031948;28;20038;-81
2021/08/21 04:15:28;;;;;;;7.28;3.03;;;;;;;21.73;53.94;100181.44;5031410;28;20495;-81
2021/08/21 04:17:56;;;;;;;3.42;2.92;;;;;;;21.70;54.28;100184.41;5031743;28;20052;-81
2021/08/21 04:20:24;;;;;;;3.08;2.60;;;;;;;21.61;54.44;100187.94;5029629;28;20049;-82
2021/08/21 04:22:52;;;;;;;4.80;3.92;;;;;;;21.75;54.41;100179.50;5023850;28;20044;-81
2021/08/21 04:25:19;;;;;;;8.25;3.92;;;;;;;21.63;54.47;100186.00;5039331;28;20038;-82
2021/08/21 04:27:46;;;;;;;7.30;4.25;;;;;;;21.41;55.50;100193.38;5030749;28;20400;-81
2021/08/21 04:30:14;;;;;;;5.60;3.47;;;;;;;21.51;55.29;100187.19;5031140;28;20072;-81
2021/08/21 04:32:42;;;;;;;7.43;4.68;;;;;;;21.61;55.05;100186.13;5026461;28;20040;-81
2021/08/21 04:35:10;;;;;;;7.75;4.32;;;;;;;21.43;55.61;100186.09;5046516;28;20446;-81
2021/08/21 04:37:37;;;;;;;4.68;4.18;;;;;;;21.18;56.54;100192.06;5047106;28;20124;-81
2021/08/21 04:40:07;;;;;;;8.07;4.63;;;;;;;20.80;57.95;100190.38;5030418;28;20042;-82
2021/08/21 04:42:34;;;;;;;10.27;5.30;;;;;;;20.87;57.72;100187.00;5030372;28;20100;-83
2021/08/21 04:45:01;;;;;;;9.55;5.03;;;;;;;21.21;56.64;100193.59;5031055;28;20046;-83
2021/08/21 04:47:32;;;;;;;5.05;4.03;;;;;;;20.85;57.97;100196.09;5041697;28;20468;-83
2021/08/21 04:50:03;;;;;;;7.78;4.22;;;;;;;20.77;58.27;100199.44;5030382;28;20104;-82
2021/08/21 04:52:32;;;;;;;6.35;4.32;;;;;;;20.98;57.74;100201.06;5047723;28;20561;-82
2021/08/21 04:54:59;;;;;;;11.00;4.10;;;;;;;21.15;57.21;100197.66;5030147;28;20540;-81
2021/08/21 04:57:26;;;;;;;6.90;4.07;;;;;;;21.31;56.64;100203.22;5030436;28;20053;-80
2021/08/21 04:59:53;;;;;;;4.82;3.58;;;;;;;21.39;56.22;100195.34;5030475;28;20515;-80
2021/08/21 05:02:20;;;;;;;4.18;3.78;;;;;;;21.60;55.82;100207.50;5030037;28;20045;-81
2021/08/21 05:04:47;;;;;;;4.78;3.95;;;;;;;21.38;56.13;100206.09;5030590;28;20065;-80
2021/08/21 05:07:15;;;;;;;4.10;3.22;;;;;;;21.58;55.86;100209.50;5031147;28;20041;-80
2021/08/21 05:09:45;;;;;;;4.68;3.75;;;;;;;21.74;55.51;100198.22;5031870;28;20057;-80
2021/08/21 05:12:18;;;;;;;7.93;4.35;;;;;;;21.75;55.13;100205.19;5047390;28;20042;-81
2021/08/21 05:14:57;;;;;;;5.65;3.22;;;;;;;22.02;54.84;100197.19;5030599;28;20128;-81
2021/08/21 05:17:26;;;;;;;8.45;3.60;;;;;;;22.07;54.33;100202.88;5031924;28;20053;-81
2021/08/21 05:20:27;;;;;;;8.43;4.13;;;;;;;22.36;53.92;100202.63;5048030;28;20046;-81
2021/08/21 05:23:05;;;;;;;7.28;4.03;;;;;;;22.19;54.33;100203.50;5051413;28;20397;-82
2021/08/21 05:25:37;;;;;;;4.40;3.38;;;;;;;22.61;53.19;100208.16;5051782;28;20049;-82
2021/08/21 05:28:04;;;;;;;15.68;5.80;;;;;;;22.74;53.05;100206.75;5031044;28;20045;-81
2021/08/21 05:30:34;;;;;;;4.70;2.80;;;;;;;22.74;53.05;100204.09;5044909;28;20124;-82
2021/08/21 05:33:01;;;;;;;6.38;3.22;;;;;;;22.80;53.21;100210.63;5030118;28;20041;-81
2021/08/21 05:35:28;;;;;;;6.60;3.80;;;;;;;23.05;52.16;100213.44;5030826;28;20046;-83
2021/08/21 05:37:54;;;;;;;5.45;3.92;;;;;;;23.11;52.13;100216.28;5033769;28;20038;-81
2021/08/21 05:40:21;;;;;;;12.80;3.72;;;;;;;23.12;51.52;100217.16;5035822;28;20428;-82
2021/08/21 05:42:49;;;;;;;9.10;3.42;;;;;;;23.12;51.39;100209.16;5035091;28;20545;-83
2021/08/21 05:45:16;;;;;;;4.45;3.30;;;;;;;23.10;51.01;100219.13;5035493;28;20045;-82
2021/08/21 05:47:45;;;;;;;6.32;3.65;;;;;;;23.41;50.56;100222.09;5033187;28;20041;-82
2021/08/21 05:50:12;;;;;;;6.45;3.80;;;;;;;23.42;50.39;100218.44;5033716;28;20041;-81
2021/08/21 05:52:39;;;;;;;8.23;4.03;;;;;;;23.43;50.23;100228.06;5034268;28;20121;-81
2021/08/21 05:55:06;;;;;;;5.68;3.53;;;;;;;23.67;49.29;100219.38;5033381;28;20103;-81
2021/08/21 05:57:45;;;;;;;6.82;4.18;;;;;;;23.35;50.30;100230.72;5032448;28;20041;-81
2021/08/21 06:00:12;;;;;;;6.63;4.20;;;;;;;23.31;50.48;100226.69;5033797;28;20131;-82
2021/08/21 06:02:42;;;;;;;4.18;3.40;;;;;;;23.92;48.90;100225.63;5035727;28;20137;-81
2021/08/21 06:05:11;;;;;;;11.25;3.60;;;;;;;24.16;48.21;100222.16;5034768;28;20434;-82
2021/08/21 06:07:42;;;;;;;31.52;8.02;;;;;;;23.80;49.22;100230.38;5050682;28;20500;-82
2021/08/21 06:10:29;;;;;;;7.70;3.70;;;;;;;23.74;49.61;100234.53;5034154;28;20518;-80
2021/08/21 06:12:56;;;;;;;5.55;3.35;;;;;;;23.80;49.56;100235.72;5034943;28;20041;-81
2021/08/21 06:15:23;;;;;;;4.03;3.53;;;;;;;23.93;48.37;100229.94;5034633;28;20080;-81
2021/08/21 06:17:50;;;;;;;3.42;3.13;;;;;;;24.10;47.99;100228.13;5034977;28;20087;-81
2021/08/21 06:20:17;;;;;;;6.43;4.07;;;;;;;24.13;48.10;100228.66;5035291;28;20404;-81
2021/08/21 06:22:43;;;;;;;5.35;3.47;;;;;;;24.08;48.26;100233.63;5034974;28;20044;-82
2021/08/21 06:25:11;;;;;;;5.53;3.80;;;;;;;24.42;47.26;100230.03;5034994;28;20445;-82
2021/08/21 06:27:39;;;;;;;4.68;3.42;;;;;;;24.58;46.93;100231.84;5034765;28;20526;-82
2021/08/21 06:30:08;;;;;;;5.47;3.35;;;;;;;24.51;46.98;100227.19;5035400;28;20488;-82
2021/08/21 06:32:35;;;;;;;5.65;3.97;;;;;;;24.09;47.98;100234.47;5034519;28;20072;-82
2021/08/21 06:35:04;;;;;;;5.43;3.40;;;;;;;24.44;47.73;100225.34;5034948;28;20041;-82
2021/08/21 06:37:30;;;;;;;6.15;3.70;;;;;;;24.48;47.63;100237.34;5034817;28;20040;-81
2021/08/21 06:39:57;;;;;;;12.93;4.05;;;;;;;24.65;47.13;100243.50;5035114;28;20053;-81
2021/08/21 06:42:25;;;;;;;15.00;4.10;;;;;;;24.36;47.60;100236.84;5025198;28;20049;-81
2021/08/21 06:45:08;;;;;;;8.13;3.97;;;;;;;24.69;47.15;100245.66;5033630;28;20529;-82
2021/08/21 06:47:35;;;;;;;5.55;3.38;;;;;;;24.71;46.77;100246.31;5034472;28;20404;-81
2021/08/21 06:50:05;;;;;;;7.97;3.60;;;;;;;24.68;47.02;100246.66;5034189;28;20061;-82
2021/08/21 06:52:31;;;;;;;15.52;4.57;;;;;;;24.69;47.04;100251.00;5034753;28;20045;-82
2021/08/21 06:54:58;;;;;;;5.93;3.40;;;;;;;24.82;47.02;100245.13;5029995;28;20099;-82
2021/08/21 06:57:25;;;;;;;4.18;3.53;;;;;;;24.94;46.92;100251.81;5034677;28;20037;-82
2021/08/21 06:59:52;;;;;;;9.80;3.47;;;;;;;24.79;47.08;100256.16;5034163;28;20392;-83
2021/08/21 07:02:19;;;;;;;7.07;3.63;;;;;;;24.66;47.63;100248.69;5034435;28;20068;-81
2021/08/21 07:04:45;;;;;;;4.70;3.25;;;;;;;24.54;47.94;100250.00;5033923;28;20041;-81
2021/08/21 07:07:12;;;;;;;4.78;3.75;;;;;;;24.71;47.73;100253.47;5034284;28;20166;-81
2021/08/21 07:09:39;;;;;;;7.68;3.67;;;;;;;24.72;47.35;100256.00;5034113;28;20076;-79
2021/08/21 07:12:06;;;;;;;5.35;3.70;;;;;;;24.66;48.17;100250.47;5033794;28;20049;-81
2021/08/21 07:14:33;;;;;;;6.03;3.08;;;;;;;24.98;47.23;100258.47;5033574;28;20045;-83
2021/08/21 07:17:00;;;;;;;8.82;4.57;;;;;;;25.01;47.09;100255.44;5020940;28;20492;-78
2021/08/21 07:19:26;;;;;;;8.25;3.75;;;;;;;24.89;47.24;100251.47;5029534;28;20045;-80
2021/08/21 07:21:54;;;;;;;6.85;3.45;;;;;;;24.76;47.59;100251.16;5029861;28;20731;-80
2021/08/21 07:24:21;;;;;;;4.93;3.63;;;;;;;24.90;47.57;100252.31;5018626;28;20100;-80
2021/08/21 07:26:48;;;;;;;6.47;3.78;;;;;;;24.96;47.34;100252.44;5014977;28;20049;-79
2021/08/21 07:29:16;;;;;;;6.65;3.60;;;;;;;24.84;47.61;100248.47;5014652;28;20046;-84
2021/08/21 07:31:43;;;;;;;9.50;3.95;;;;;;;24.81;47.22;100246.97;5015426;28;20045;-85
2021/08/21 07:34:10;;;;;;;10.55;3.90;;;;;;;24.72;47.70;100248.00;5016031;28;20072;-83
2021/08/21 07:36:37;;;;;;;10.75;3.33;;;;;;;24.94;47.37;100245.63;5014616;28;20064;-82
2021/08/21 07:39:04;;;;;;;6.97;3.42;;;;;;;25.03;47.42;100253.44;5015445;28;20045;-83
2021/08/21 07:41:35;;;;;;;7.03;3.83;;;;;;;24.97;47.05;100251.44;5011769;28;20316;-80
2021/08/21 07:44:03;;;;;;;9.20;3.60;;;;;;;25.18;46.91;100250.09;5018864;28;20436;-84
2021/08/21 07:46:31;;;;;;;10.57;3.03;;;;;;;25.37;45.94;100249.72;5035163;28;20116;-84
2021/08/21 07:48:58;;;;;;;7.47;3.58;;;;;;;25.41;46.40;100248.38;5029205;28;20512;-88
2021/08/21 07:51:25;;;;;;;6.07;3.45;;;;;;;25.55;46.06;100252.13;5014702;28;20096;-84
2021/08/21 07:53:52;;;;;;;4.75;4.10;;;;;;;25.40;46.21;100249.34;5013463;28;20068;-81
2021/08/21 07:56:18;;;;;;;8.65;4.22;;;;;;;25.69;45.81;100261.25;5015763;28;20057;-83
2021/08/21 07:58:45;;;;;;;7.70;4.18;;;;;;;25.58;46.22;100260.63;5013160;28;20048;-81
2021/08/21 08:01:12;;;;;;;9.65;3.72;;;;;;;25.44;46.21;100260.53;5036435;28;20107;-81
2021/08/21 08:03:39;;;;;;;4.53;3.28;;;;;;;25.48;45.96;100261.84;5015740;28;20500;-81
2021/08/21 08:06:06;;;;;;;12.25;3.80;;;;;;;25.60;45.89;100263.97;5017677;28;20061;-83
2021/08/21 08:08:32;;;;;;;9.88;3.47;;;;;;;25.67;45.50;100264.09;5028146;28;20072;-80
2021/08/21 08:11:00;;;;;;;8.85;3.60;;;;;;;25.82;45.48;100264.22;5032094;28;20050;-81
2021/08/21 08:13:27;;;;;;;4.28;3.40;;;;;;;25.91;45.22;100265.84;5025080;28;20064;-79
2021/08/21 08:15:54;;;;;;;7.40;3.83;;;;;;;25.74;45.56;100266.91;5030239;28;20041;-77
2021/08/21 08:18:20;;;;;;;8.27;3.72;;;;;;;25.90;45.36;100266.84;5024215;28;20124;-78
2021/08/21 08:20:47;;;;;;;9.65;3.80;;;;;;;26.01;45.06;100269.13;5029343;28;20389;-78
2021/08/21 08:23:14;;;;;;;5.70;3.65;;;;;;;26.13;44.50;100264.22;5029956;28;20408;-79
2021/08/21 08:25:41;;;;;;;5.32;3.50;;;;;;;26.24;43.90;100268.31;5027796;28;20037;-77
2021/08/21 08:28:08;;;;;;;8.32;4.47;;;;;;;26.12;44.29;100265.22;5026800;28;20037;-78
2021/08/21 08:30:34;;;;;;;7.60;3.58;;;;;;;25.88;44.60;100278.72;5024807;28;20033;-79
2021/08/21 08:33:01;;;;;;;11.05;3.97;;;;;;;25.82;44.69;100280.25;5028684;28;20034;-77
2021/08/21 08:35:28;;;;;;;11.60;4.07;;;;;;;25.94;44.97;100286.88;5029168;28;20518;-79
2021/08/21 08:37:55;;;;;;;13.45;4.07;;;;;;;26.01;45.04;100277.13;5041183;28;20117;-79
2021/08/21 08:40:25;;;;;;;8.88;4.20;;;;;;;25.96;45.18;100286.69;5028585;28;20045;-80
2021/08/21 08:42:53;;;;;;;6.72;3.78;;;;;;;25.96;45.10;100271.50;5027590;28;20477;-78
2021/08/21 08:45:19;;;;;;;6.07;4.00;;;;;;;25.77;45.69;100288.75;5029694;28;20503;-80
2021/08/21 08:47:46;;;;;;;10.13;3.92;;;;;;;26.05;45.38;100277.63;5029884;28;20034;-79
2021/08/21 08:50:14;;;;;;;5.47;3.67;;;;;;;26.00;45.12;100288.00;5025045;28;20076;-79
2021/08/21 08:52:42;;;;;;;6.38;3.80;;;;;;;25.97;45.66;100283.84;5027563;28;20053;-78
2021/08/21 08:55:10;;;;;;;5.97;3.40;;;;;;;26.11;45.28;100277.75;5021617;28;20566;-79
2021/08/21 08:57:46;;;;;;;8.30;4.47;;;;;;;25.98;45.52;100293.50;5028694;28;20061;-78
2021/08/21 09:00:22;;;;;;;13.80;5.63;;;;;;;26.11;45.19;100280.41;5028691;28;20044;-78
2021/08/21 09:02:52;;;;;;;6.13;4.00;;;;;;;26.29;45.13;100287.31;5026417;28;20041;-79
2021/08/21 09:05:21;;;;;;;6.05;4.30;;;;;;;26.04;45.89;100295.47;5024574;28;20038;-80
2021/08/21 09:07:55;;;;;;;5.38;4.50;;;;;;;26.08;45.47;100291.44;5028842;28;20033;-80
2021/08/21 09:10:30;;;;;;;9.55;4.80;;;;;;;26.41;45.03;100285.06;5028260;28;20053;-79
2021/08/21 09:13:15;;;;;;;8.02;4.65;;;;;;;26.52;44.40;100285.50;5028648;28;20045;-80
2021/08/21 09:15:50;;;;;;;10.50;3.97;;;;;;;26.50;44.73;100282.19;5026017;28;20033;-78
2021/08/21 09:18:23;;;;;;;6.43;4.13;;;;;;;26.78;43.55;100274.41;5027879;28;20033;-78
2021/08/21 09:21:10;;;;;;;11.00;3.97;;;;;;;26.54;44.59;100282.66;5026789;28;20348;-79
2021/08/21 09:23:43;;;;;;;6.20;3.92;;;;;;;26.66;44.13;100273.19;5023156;28;20432;-79
2021/08/21 09:26:24;;;;;;;6.90;4.05;;;;;;;26.63;44.12;100285.09;5027419;28;20073;-79
2021/08/21 09:28:53;;;;;;;6.85;4.00;;;;;;;26.87;43.55;100286.72;5025627;28;20042;-79
2021/08/21 09:31:22;;;;;;;7.20;4.53;;;;;;;26.52;44.34;100282.81;5028193;28;20084;-78
2021/08/21 09:34:08;;;;;;;6.57;4.00;;;;;;;26.75;43.53;100281.97;5027980;28;20407;-80
2021/08/21 09:36:40;;;;;;;11.35;3.38;;;;;;;26.92;43.28;100283.50;5026038;28;20041;-79
2021/08/21 09:39:12;;;;;;;5.45;3.17;;;;;;;27.09;43.22;100278.84;5029458;28;20114;-79
2021/08/21 09:41:59;;;;;;;7.40;3.95;;;;;;;26.77;44.18;100269.25;5030389;28;20092;-79
2021/08/21 09:44:35;;;;;;;4.50;3.95;;;;;;;27.01;43.33;100277.06;5025529;28;20045;-79
2021/08/21 09:47:20;;;;;;;7.03;4.43;;;;;;;27.00;43.95;100272.69;5023586;28;20042;-80
2021/08/21 09:49:47;;;;;;;4.07;3.58;;;;;;;27.25;43.67;100272.47;5027790;28;20053;-79
2021/08/21 09:52:16;;;;;;;4.63;4.15;;;;;;;27.06;43.66;100272.00;5029432;28;20037;-79
2021/08/21 09:55:08;;;;;;;8.88;3.88;;;;;;;27.11;43.50;100272.31;5042068;28;20412;-79
2021/08/21 09:57:36;;;;;;;10.27;4.63;;;;;;;26.95;43.30;100279.59;5023221;28;20034;-79
2021/08/21 10:00:05;;;;;;;4.63;3.65;;;;;;;27.03;43.01;100271.50;5029512;28;20470;-79
2021/08/21 10:02:44;;;;;;;6.13;3.97;;;;;;;27.32;42.09;100268.03;5029110;28;20044;-79
2021/08/21 10:05:10;;;;;;;5.03;3.55;;;;;;;27.41;42.04;100274.97;5046613;28;20037;-80
2021/08/21 10:07:43;;;;;;;6.38;3.70;;;;;;;27.34;41.99;100276.72;5031647;28;20041;-78
2021/08/21 10:10:12;;;;;;;8.35;3.50;;;;;;;27.49;41.84;100279.41;5029599;28;20045;-80
2021/08/21 10:12:41;;;;;;;8.15;4.35;;;;;;;27.52;41.94;100274.50;5031515;28;20045;-78
2021/08/21 10:15:08;;;;;;;6.78;3.38;;;;;;;27.58;42.15;100272.91;5034378;28;20038;-81
2021/08/21 10:17:38;;;;;;;8.20;3.40;;;;;;;27.57;42.73;100272.09;5032615;28;20099;-80
2021/08/21 10:20:06;;;;;;;11.43;4.43;;;;;;;27.77;42.68;100276.91;5034489;28;20050;-79
2021/08/21 10:22:34;;;;;;;11.45;4.80;;;;;;;27.65;42.82;100269.31;5034475;28;20033;-80
2021/08/21 10:25:05;;;;;;;10.82;4.88;;;;;;;27.62;43.03;100272.38;5034813;28;20053;-78
2021/08/21 10:27:41;;;;;;;7.07;4.00;;;;;;;27.88;42.77;100271.88;5031593;28;20041;-83
2021/08/21 10:30:26;;;;;;;8.93;4.55;;;;;;;27.98;42.64;100276.94;5049980;28;20404;-84
2021/08/21 10:33:01;;;;;;;7.72;4.50;;;;;;;28.03;42.52;100273.72;5034046;28;20038;-88
2021/08/21 10:35:51;;;;;;;8.68;4.68;;;;;;;27.96;42.72;100268.25;5033322;28;20047;-89
2021/08/21 10:38:30;;;;;;;9.93;4.18;;;;;;;28.07;42.67;100267.78;5035677;28;20049;-91
2021/08/21 10:40:59;;;;;;;11.73;4.20;;;;;;;28.06;42.45;100266.09;5037249;28;20053;-93
2021/08/21 10:43:40;;;;;;;6.28;3.85;;;;;;;28.33;41.39;100263.72;5036296;28;20095;-94
2021/08/21 10:46:07;;;;;;;6.95;4.13;;;;;;;28.33;40.90;100255.69;5036081;28;20562;-86
2021/08/21 10:48:34;;;;;;;4.70;3.55;;;;;;;28.25;39.96;100261.16;5034424;28;20056;-83
2021/08/21 10:51:04;;;;;;;6.45;4.00;;;;;;;28.31;39.86;100250.50;5034715;28;20041;-84
2021/08/21 10:53:34;;;;;;;5.78;3.40;;;;;;;28.23;40.31;100252.44;5032178;28;20055;-85
2021/08/21 10:56:04;;;;;;;12.25;4.43;;;;;;;28.50;39.77;100256.25;5033583;28;20389;-83
2021/08/21 10:58:32;;;;;;;5.30;3.75;;;;;;;28.59;39.27;100245.19;5035190;28;20121;-90
2021/08/21 11:01:09;;;;;;;10.77;3.78;;;;;;;28.63;39.50;100256.38;5032952;28;20687;-87
2021/08/21 11:03:38;;;;;;;7.88;3.20;;;;;;;28.63;39.81;100246.47;5050793;28;20064;-92
2021/08/21 11:06:08;;;;;;;7.95;4.13;;;;;;;28.66;39.35;100251.47;5031122;28;20438;-90
2021/08/21 11:08:37;;;;;;;8.45;4.68;;;;;;;28.52;39.28;100241.63;5035005;28;20188;-87
2021/08/21 11:11:07;;;;;;;4.45;3.90;;;;;;;28.70;38.97;100239.28;5033331;28;20045;-88
2021/08/21 11:14:28;;;;;;;5.50;3.75;;;;;;;28.94;38.58;100242.59;5033653;28;20049;-88
2021/08/21 11:17:01;;;;;;;5.97;3.05;;;;;;;28.90;38.60;100236.75;4988597;28;20501;-88
2021/08/21 11:19:33;;;;;;;6.80;3.72;;;;;;;28.90;38.54;100246.66;4991007;28;20077;-86
2021/08/21 11:22:18;;;;;;;6.45;3.45;;;;;;;28.90;38.68;100235.94;5004395;28;20053;-89
2021/08/21 11:24:51;;;;;;;8.35;3.55;;;;;;;28.84;38.52;100234.03;5030273;28;20091;-94
2021/08/21 11:27:36;;;;;;;4.88;3.03;;;;;;;28.82;37.80;100233.41;5025953;28;20037;-82
2021/08/21 11:30:07;;;;;;;6.93;3.53;;;;;;;28.68;37.86;100221.75;5031667;28;20115;-89
2021/08/21 11:32:45;;;;;;;5.72;3.05;;;;;;;28.72;38.46;100220.34;5021287;28;20050;-85
2021/08/21 11:35:19;;;;;;;8.05;4.13;;;;;;;28.90;38.43;100219.84;5021752;28;20072;-86
2021/08/21 11:37:47;;;;;;;4.03;2.90;;;;;;;29.02;37.88;100225.50;5020110;28;20038;-85